Terminal Aerodrome Forecast
Issued by NWS Duluth, MN

Home | Current Version | Previous Version | Text Only | Print | Product List | Glossary On
Versions: 1 2 3 4 5 6 7 8 9 10 11 12 13 14 15
000
FTUS43 KDLH 210500
TAFDLH
TAF
KDLH 210537Z 2106/2206 VRB05KT P6SM SKC
     FM211000 30011G17KT P6SM SCT040 BKN100
      TEMPO 2112/2114 5SM -SHRA
     FM211400 33012G26KT P6SM SCT040=

USA.gov is the U.S. government's official web portal to all federal, state and local government web resources and services.